Time;durP1;ratioP1;P1;durP2;ratioP2;P2;SDS_P1;SDS_P2;PMS_P1;PMS_P2;Temp;Humidity;BMP_temperature;BMP_pressure;BME280_temperature;BME280_humidity;BME280_pressure;Samples;Min_cycle;Max_cycle;Signal;HPM_P1;HPM_P2
2023/03/19 00:00:23;;;;;;;6.30;2.13;;;13.80;45.90;;;9.26;67.59;95279.63;4860070;29;20044;-55
2023/03/19 00:02:50;;;;;;;4.78;2.42;;;13.80;46.20;;;9.16;66.52;95274.28;4859127;29;20731;-52
2023/03/19 00:05:18;;;;;;;5.90;2.15;;;13.70;46.20;;;9.14;66.79;95281.72;4860230;29;20548;-48
2023/03/19 00:07:44;;;;;;;4.88;2.10;;;13.70;46.30;;;9.12;65.64;95294.44;4873920;29;20040;-53
2023/03/19 00:10:11;;;;;;;4.25;2.53;;;13.60;47.00;;;9.11;63.85;95292.84;4859062;29;20062;-53
2023/03/19 00:12:36;;;;;;;3.25;2.10;;;13.60;46.40;;;9.14;63.59;95295.00;4860061;29;20116;-54
2023/03/19 00:15:03;;;;;;;5.93;2.40;;;13.60;46.40;;;9.19;62.57;95298.47;4858777;29;20104;-55
2023/03/19 00:17:29;;;;;;;4.88;2.70;;;13.60;46.40;;;9.26;62.74;95300.88;4859501;29;20463;-54
2023/03/19 00:19:55;;;;;;;4.53;2.58;;;13.60;46.40;;;9.34;61.28;95303.03;4859934;29;20047;-55
2023/03/19 00:22:21;;;;;;;5.03;2.80;;;13.70;46.30;;;9.42;60.43;95299.84;4858821;29;20441;-53
2023/03/19 00:24:47;;;;;;;4.55;2.58;;;13.70;46.60;;;9.54;59.71;95301.47;4859837;29;20036;-52
2023/03/19 00:27:13;;;;;;;6.88;2.75;;;13.80;46.20;;;9.62;59.68;95295.59;4858738;29;20025;-50
2023/03/19 00:29:39;;;;;;;5.65;2.53;;;13.80;46.00;;;9.67;59.58;95303.59;4859785;29;20388;-53
2023/03/19 00:32:06;;;;;;;4.43;2.58;;;13.90;46.00;;;9.74;60.01;95304.13;4859750;29;20062;-56
2023/03/19 00:34:32;;;;;;;5.80;2.78;;;14.00;46.00;;;9.78;59.22;95307.88;4858527;29;20029;-53
2023/03/19 00:36:57;;;;;;;6.60;2.90;;;14.00;45.80;;;9.81;59.24;95306.50;4859708;29;20024;-56
2023/03/19 00:39:23;;;;;;;5.55;2.80;;;14.10;45.80;;;9.82;58.86;95308.91;4858787;29;20043;-50
2023/03/19 00:41:49;;;;;;;7.75;3.05;;;14.10;45.70;;;9.84;58.91;95305.97;4859697;29;20032;-52
2023/03/19 00:44:18;;;;;;;3.95;2.67;;;14.10;45.60;;;9.84;58.62;95314.78;4859830;29;20373;-54
2023/03/19 00:46:45;;;;;;;5.50;2.92;;;14.10;45.50;;;9.88;58.66;95317.69;4858602;29;20036;-51
2023/03/19 00:49:11;;;;;;;7.65;3.00;;;14.20;45.50;;;9.90;58.93;95318.22;4859712;29;20031;-52
2023/03/19 00:51:37;;;;;;;6.53;2.95;;;14.20;45.50;;;9.90;58.76;95313.72;4858556;29;20482;-49
2023/03/19 00:54:03;;;;;;;7.75;2.78;;;14.20;45.40;;;9.94;58.57;95319.31;4859381;29;20092;-54
2023/03/19 00:56:29;;;;;;;6.05;2.88;;;14.20;45.40;;;9.99;58.21;95319.28;4858625;29;20033;-51
2023/03/19 00:58:56;;;;;;;5.68;3.00;;;14.20;45.30;;;10.00;58.35;95328.88;4859188;29;20383;-49
2023/03/19 01:01:22;;;;;;;5.57;2.95;;;14.30;45.30;;;10.03;58.43;95322.19;4859626;29;20028;-51
2023/03/19 01:03:48;;;;;;;8.95;3.20;;;14.30;45.30;;;10.06;58.43;95321.66;4858587;29;20025;-51
2023/03/19 01:06:14;;;;;;;6.18;3.00;;;14.30;45.30;;;10.08;57.88;95324.88;4859423;29;20069;-49
2023/03/19 01:08:40;;;;;;;4.80;2.95;;;14.30;45.30;;;10.09;57.73;95329.94;4858669;29;20053;-51
2023/03/19 01:11:15;;;;;;;7.63;3.08;;;14.30;45.20;;;10.11;57.68;95333.13;4863233;29;20032;-50
2023/03/19 01:13:42;;;;;;;10.23;3.20;;;14.40;45.30;;;10.13;57.85;95330.19;4863042;29;20163;-50
2023/03/19 01:16:09;;;;;;;8.38;3.30;;;14.30;45.10;;;10.15;58.06;95331.53;4861926;29;20029;-53
2023/03/19 01:18:35;;;;;;;10.07;3.10;;;14.40;45.20;;;10.17;58.12;95331.25;4863271;29;20104;-49
2023/03/19 01:21:01;;;;;;;6.00;3.20;;;14.40;45.10;;;10.17;58.30;95329.38;4861838;29;20029;-53
2023/03/19 01:23:28;;;;;;;5.93;2.90;;;14.40;45.10;;;10.15;58.36;95330.72;4862955;29;20025;-49
2023/03/19 01:25:55;;;;;;;5.97;2.95;;;14.40;45.10;;;10.12;58.13;95331.25;4863328;29;20029;-50
2023/03/19 01:28:22;;;;;;;6.00;2.92;;;14.40;45.10;;;10.12;58.49;95329.41;4861701;29;20778;-54
2023/03/19 01:30:48;;;;;;;6.55;3.33;;;14.40;45.10;;;10.10;58.10;95328.88;4863311;29;20040;-53
2023/03/19 01:33:14;;;;;;;8.75;3.58;;;14.40;45.00;;;10.11;58.16;95329.66;4862037;29;20021;-49
2023/03/19 01:35:42;;;;;;;6.95;3.83;;;14.40;45.10;;;10.10;58.21;95331.53;4862544;29;20115;-49
2023/03/19 01:38:08;;;;;;;7.47;3.45;;;14.40;45.10;;;10.09;57.76;95326.47;4862672;29;20031;-54
2023/03/19 01:40:34;;;;;;;6.57;3.05;;;14.40;45.10;;;10.06;58.78;95324.34;4861692;29;20071;-51
2023/03/19 01:43:16;;;;;;;12.27;3.25;;;14.40;45.10;;;10.04;58.13;95329.94;4862789;29;20045;-53
2023/03/19 01:45:45;;;;;;;7.00;3.40;;;14.30;45.10;;;10.05;58.48;95334.19;4861018;29;20037;-50
2023/03/19 01:48:39;;;;;;;8.68;4.00;;;14.40;45.10;;;10.04;58.57;95335.25;4862446;29;20364;-54
2023/03/19 01:51:12;;;;;;;9.43;3.47;;;14.30;45.20;;;10.00;58.00;95341.34;4841652;29;20045;-51
2023/03/19 01:53:48;;;;;;;6.40;3.35;;;14.30;45.10;;;9.98;58.12;95346.97;4857350;29;20040;-49
2023/03/19 01:56:33;;;;;;;7.70;3.67;;;14.30;45.10;;;9.97;58.20;95337.41;4861296;29;20093;-54
2023/03/19 01:59:13;;;;;;;7.45;3.50;;;14.30;45.10;;;9.98;58.09;95340.84;4862288;29;20043;-53
2023/03/19 02:01:55;;;;;;;7.18;3.60;;;14.30;45.10;;;9.95;58.16;95339.50;4861923;29;20040;-51
2023/03/19 02:04:27;;;;;;;6.90;3.28;;;14.30;45.70;;;9.94;58.19;95343.25;4861301;29;20388;-54
2023/03/19 02:07:01;;;;;;;11.68;4.30;;;14.20;45.00;;;9.93;58.24;95341.63;4860790;29;20131;-52
2023/03/19 02:09:29;;;;;;;6.03;3.53;;;14.20;45.10;;;9.90;58.39;95337.66;4868190;29;20025;-51
2023/03/19 02:11:56;;;;;;;7.00;3.67;;;14.20;45.10;;;9.86;58.33;95341.91;4889647;29;20025;-50
2023/03/19 02:14:23;;;;;;;7.55;2.95;;;14.20;45.10;;;9.82;58.67;95343.50;4862136;29;20029;-50
2023/03/19 02:16:49;;;;;;;7.22;3.47;;;14.20;45.10;;;9.83;58.48;95338.97;4860941;29;20028;-55
2023/03/19 02:19:51;;;;;;;6.43;3.80;;;14.20;45.10;;;9.79;58.64;95344.03;4861952;29;20064;-51
2023/03/19 02:22:25;;;;;;;9.32;3.80;;;14.10;45.20;;;9.78;58.64;95342.44;4855804;29;20092;-52
2023/03/19 02:25:08;;;;;;;7.50;3.83;;;14.10;45.10;;;9.79;58.52;95344.03;4875678;29;20040;-51
2023/03/19 02:27:35;;;;;;;9.90;3.55;;;14.10;45.20;;;9.79;58.62;95333.38;4867560;29;20024;-50
2023/03/19 02:30:25;;;;;;;7.13;3.60;;;14.10;45.20;;;9.79;58.49;95346.69;4861676;29;20029;-51
2023/03/19 02:32:51;;;;;;;9.40;4.20;;;14.10;45.20;;;9.80;58.56;95345.63;4860578;29;20040;-51
2023/03/19 02:35:17;;;;;;;6.72;3.40;;;14.10;45.20;;;9.82;58.58;95343.50;4860122;29;20044;-56
2023/03/19 02:37:43;;;;;;;7.15;3.72;;;14.10;45.20;;;9.82;58.44;95348.03;4860060;29;20117;-50
2023/03/19 02:40:30;;;;;;;7.63;3.53;;;14.10;45.20;;;9.82;58.25;95351.47;4865890;29;20507;-52
2023/03/19 02:42:56;;;;;;;7.95;3.90;;;14.10;45.30;;;9.84;57.95;95351.19;4874422;29;20089;-49
2023/03/19 02:45:29;;;;;;;8.63;4.15;;;14.10;45.20;;;9.86;57.54;95351.75;4862406;29;20032;-52
2023/03/19 02:47:55;;;;;;;7.07;3.50;;;14.10;45.20;;;9.84;57.40;95348.53;4860491;29;20028;-49
2023/03/19 02:50:21;;;;;;;8.48;4.05;;;14.10;45.10;;;9.90;57.41;95360.78;4860718;29;20115;-51
2023/03/19 02:52:47;;;;;;;8.70;4.03;;;14.10;45.10;;;9.92;57.53;95359.47;4862620;29;20024;-51
2023/03/19 02:55:13;;;;;;;8.25;3.92;;;14.10;45.10;;;9.92;56.99;95359.47;4869421;29;20025;-52
2023/03/19 02:57:39;;;;;;;11.45;4.32;;;14.20;45.10;;;9.95;57.19;95360.78;4859334;29;20025;-50
2023/03/19 03:00:07;;;;;;;6.68;3.90;;;14.20;45.00;;;9.95;57.13;95358.13;4860704;29;20043;-49
2023/03/19 03:02:33;;;;;;;7.60;4.00;;;14.20;45.00;;;9.95;56.95;95358.13;4860464;29;20081;-51
2023/03/19 03:04:59;;;;;;;10.07;3.80;;;14.20;45.00;;;9.89;57.42;95367.97;4859682;29;20092;-51
2023/03/19 03:07:25;;;;;;;6.20;3.13;;;14.20;45.00;;;9.88;56.43;95363.72;4859619;29;20079;-49
2023/03/19 03:09:51;;;;;;;8.88;3.70;;;14.20;44.90;;;9.94;56.29;95368.00;4859346;29;20077;-49
2023/03/19 03:12:17;;;;;;;9.60;3.85;;;14.20;44.90;;;9.98;55.96;95372.78;4860109;29;20048;-49
2023/03/19 03:14:43;;;;;;;6.95;3.30;;;14.20;44.80;;;10.01;55.92;95369.59;4859640;29;20123;-49
2023/03/19 03:17:09;;;;;;;7.47;3.80;;;14.20;44.70;;;10.03;55.85;95367.44;4859777;29;20021;-49
2023/03/19 03:19:35;;;;;;;7.78;3.40;;;14.20;44.70;;;10.05;55.59;95379.41;4860311;29;20035;-49
2023/03/19 03:22:01;;;;;;;8.77;3.53;;;14.30;44.70;;;10.06;55.84;95377.56;4859047;29;20033;-56
2023/03/19 03:24:27;;;;;;;9.18;3.58;;;14.30;44.60;;;10.05;55.86;95384.75;4860220;29;20504;-50
2023/03/19 03:26:53;;;;;;;7.88;3.45;;;14.30;44.60;;;10.06;55.97;95381.03;4858699;29;20033;-49
2023/03/19 03:29:19;;;;;;;9.13;3.95;;;14.30;44.60;;;10.08;55.77;95388.75;4859958;29;20029;-50
2023/03/19 03:31:45;;;;;;;5.85;2.95;;;14.30;44.50;;;10.08;55.77;95381.56;4859548;29;20021;-49
2023/03/19 03:34:11;;;;;;;7.60;3.45;;;14.30;44.50;;;10.09;55.93;95387.66;4858154;29;20543;-53
2023/03/19 03:36:37;;;;;;;6.60;3.70;;;14.30;44.40;;;10.08;56.08;95383.41;4859173;29;20362;-52
2023/03/19 03:39:03;;;;;;;6.18;3.55;;;14.30;44.40;;;10.06;56.42;95385.53;4859034;29;20032;-53
2023/03/19 03:41:29;;;;;;;8.68;3.30;;;14.40;44.50;;;10.01;58.96;95391.66;4858436;29;20116;-49
2023/03/19 03:43:56;;;;;;;7.22;3.20;;;14.40;44.60;;;9.88;59.53;95392.19;4859697;29;20112;-49
2023/03/19 03:46:23;;;;;;;7.60;3.67;;;14.30;44.70;;;9.78;61.30;95390.31;4858121;29;20036;-49
2023/03/19 03:48:50;;;;;;;7.25;3.15;;;14.30;44.90;;;9.68;61.07;95395.59;4859590;29;20025;-51
2023/03/19 03:51:18;;;;;;;7.45;3.42;;;14.30;45.00;;;9.69;63.30;95391.91;4858249;29;20033;-49
2023/03/19 03:53:52;;;;;;;8.93;3.30;;;14.20;45.20;;;9.65;63.15;95399.59;5068844;28;20396;-52
2023/03/19 03:56:18;;;;;;;7.85;3.33;;;14.10;45.40;;;9.57;63.69;95396.66;5047972;28;20032;-53
2023/03/19 03:58:44;;;;;;;6.40;3.28;;;14.10;45.60;;;9.46;63.55;95398.47;5038054;28;20037;-51
2023/03/19 04:01:18;;;;;;;6.18;3.35;;;14.10;45.80;;;9.41;62.75;95393.16;5038482;28;20032;-49
2023/03/19 04:03:44;;;;;;;5.50;3.20;;;14.00;45.90;;;9.39;64.51;95398.72;5054476;28;20119;-50
2023/03/19 04:06:20;;;;;;;6.82;3.58;;;13.90;45.90;;;9.35;65.31;95402.97;5031049;28;20017;-49
2023/03/19 04:08:46;;;;;;;9.25;3.67;;;13.90;46.20;;;9.27;67.04;95409.59;5029058;28;20035;-49
2023/03/19 04:11:13;;;;;;;4.55;2.78;;;13.80;46.40;;;9.24;67.55;95410.13;5034214;28;20101;-51
2023/03/19 04:13:40;;;;;;;6.10;3.28;;;13.80;46.60;;;9.12;68.93;95422.00;5036466;28;20116;-55
2023/03/19 04:16:09;;;;;;;5.82;2.83;;;13.70;46.80;;;8.97;68.40;95418.22;5041406;28;20032;-53
2023/03/19 04:18:37;;;;;;;9.80;3.22;;;13.70;47.10;;;8.94;69.32;95415.28;5031345;28;20039;-50
2023/03/19 04:21:05;;;;;;;4.80;3.17;;;13.50;47.30;;;8.88;69.76;95409.13;5049203;28;20088;-53
2023/03/19 04:23:32;;;;;;;7.03;3.33;;;13.50;47.40;;;8.87;69.14;95420.00;5028663;28;20040;-52
2023/03/19 04:26:01;;;;;;;6.82;2.97;;;13.40;47.60;;;8.71;69.42;95419.13;5028730;28;20033;-52
2023/03/19 04:28:28;;;;;;;7.07;3.47;;;13.40;47.80;;;8.75;70.15;95418.38;5027428;28;20037;-49
2023/03/19 04:31:06;;;;;;;9.43;3.60;;;13.30;47.90;;;8.75;69.74;95423.69;5027664;28;20051;-52
2023/03/19 04:33:33;;;;;;;5.95;2.88;;;13.30;48.10;;;8.69;70.20;95416.72;5033537;28;20031;-52
2023/03/19 04:36:00;;;;;;;6.75;3.53;;;13.30;48.20;;;8.72;69.68;95424.19;5039549;28;20493;-49
2023/03/19 04:38:26;;;;;;;6.85;3.45;;;13.20;48.20;;;8.68;69.80;95422.28;5046985;28;20055;-51
2023/03/19 04:40:53;;;;;;;8.68;3.65;;;13.20;48.30;;;8.69;69.92;95424.69;5042615;28;20107;-51
2023/03/19 04:43:20;;;;;;;7.78;3.03;;;13.20;48.50;;;8.67;69.78;95424.16;5041705;28;20108;-50
2023/03/19 04:45:45;;;;;;;6.45;3.30;;;13.20;48.60;;;8.67;70.44;95423.34;5041943;28;20019;-52
2023/03/19 04:48:11;;;;;;;7.47;3.17;;;13.20;48.70;;;8.62;67.79;95423.31;5042448;28;20024;-49
2023/03/19 04:50:38;;;;;;;4.88;3.17;;;13.20;48.60;;;8.68;66.10;95427.59;5040977;28;20020;-54
2023/03/19 04:53:04;;;;;;;5.88;3.13;;;13.20;48.50;;;8.75;67.86;95428.19;5045139;28;20052;-50
2023/03/19 04:55:30;;;;;;;6.00;2.90;;;13.20;48.60;;;8.79;67.43;95426.63;5041042;28;20470;-49
2023/03/19 04:57:55;;;;;;;7.13;3.60;;;13.20;49.20;;;8.80;66.41;95430.88;5041873;28;20050;-50
2023/03/19 05:00:21;;;;;;;6.40;3.40;;;13.20;48.50;;;8.84;65.73;95429.31;5043404;28;20016;-51
2023/03/19 05:02:47;;;;;;;5.68;3.38;;;13.20;48.40;;;8.88;64.84;95435.69;5031740;28;20028;-50
2023/03/19 05:05:13;;;;;;;7.05;3.55;;;13.30;48.30;;;8.93;66.86;95437.56;5028843;28;20039;-51
2023/03/19 05:07:41;;;;;;;6.75;3.38;;;13.30;48.40;;;8.97;66.73;95442.13;5027035;28;20104;-51
2023/03/19 05:10:08;;;;;;;6.75;3.25;;;13.40;48.50;;;9.00;67.66;95436.31;5028377;28;20395;-49
2023/03/19 05:12:35;;;;;;;6.18;3.22;;;13.40;48.60;;;9.03;67.98;95449.06;5029836;28;20032;-47
2023/03/19 05:15:04;;;;;;;7.88;3.70;;;13.40;48.60;;;9.07;68.96;95448.56;5025994;28;20036;-47
2023/03/19 05:17:31;;;;;;;6.47;3.45;;;13.50;48.90;;;9.06;68.19;95452.25;5030047;28;20025;-47
2023/03/19 05:19:57;;;;;;;6.22;3.10;;;13.50;48.80;;;9.06;67.84;95452.25;5022569;28;20461;-46
2023/03/19 05:22:23;;;;;;;6.13;3.05;;;13.50;48.90;;;9.06;69.17;95447.75;5027626;28;20284;-50
2023/03/19 05:24:49;;;;;;;7.07;3.17;;;13.50;49.00;;;9.06;67.55;95446.94;5027936;28;20104;-54
2023/03/19 05:27:15;;;;;;;6.63;2.75;;;13.50;49.00;;;9.09;67.25;95457.88;5024153;28;20036;-50
2023/03/19 05:29:41;;;;;;;5.57;3.10;;;13.50;49.00;;;9.16;67.87;95455.00;5030396;28;20021;-50
2023/03/19 05:32:09;;;;;;;5.15;2.90;;;13.50;49.20;;;9.14;67.41;95457.88;5029593;28;20484;-48
2023/03/19 05:34:36;;;;;;;6.40;3.10;;;13.50;49.20;;;9.18;66.29;95456.34;5017862;28;20027;-53
2023/03/19 05:37:02;;;;;;;4.65;3.10;;;13.50;49.20;;;9.21;66.14;95455.81;5026900;28;20486;-47
2023/03/19 05:39:28;;;;;;;13.10;2.90;;;13.50;49.00;;;9.19;66.17;95449.94;5028775;28;20024;-47
2023/03/19 05:41:54;;;;;;;5.57;3.22;;;13.50;49.00;;;9.14;69.89;95457.88;5027743;28;20044;-50
2023/03/19 05:44:20;;;;;;;5.40;2.85;;;13.50;49.20;;;9.03;70.47;95458.91;5029068;28;20021;-49
2023/03/19 05:46:47;;;;;;;4.72;2.60;;;13.50;49.40;;;9.02;73.19;95452.81;5025597;28;20025;-47
2023/03/19 05:49:13;;;;;;;8.57;3.33;;;13.50;49.60;;;9.01;73.95;95458.34;5028940;28;20411;-47
2023/03/19 05:51:39;;;;;;;6.47;2.80;;;13.40;49.80;;;8.96;74.46;95460.97;5029245;28;20017;-52
2023/03/19 05:54:05;;;;;;;5.47;3.25;;;13.40;50.00;;;8.90;76.11;95460.16;5028847;28;20028;-47
2023/03/19 05:56:31;;;;;;;7.38;3.30;;;13.40;50.30;;;8.78;76.30;95456.91;5030626;28;20028;-49
2023/03/19 05:58:57;;;;;;;5.32;3.10;;;13.30;50.40;;;8.64;74.76;95466.34;5029481;28;20387;-47
2023/03/19 06:01:23;;;;;;;5.30;3.20;;;13.20;50.50;;;8.70;76.02;95460.03;5030578;28;20024;-49
2023/03/19 06:03:49;;;;;;;4.97;3.03;;;13.20;50.80;;;8.68;77.84;95465.59;5027588;28;20516;-48
2023/03/19 06:06:15;;;;;;;5.05;2.90;;;13.20;51.00;;;8.63;78.63;95467.41;5030786;28;20048;-51
2023/03/19 06:08:41;;;;;;;6.15;3.08;;;13.10;51.20;;;8.45;79.79;95466.72;5026023;28;20106;-48
2023/03/19 06:11:08;;;;;;;6.45;3.05;;;13.10;51.30;;;8.48;80.17;95470.75;5026439;28;20448;-47
2023/03/19 06:13:34;;;;;;;8.30;3.00;;;13.10;51.50;;;8.47;81.85;95474.47;5031022;28;20029;-52
2023/03/19 06:16:01;;;;;;;6.47;2.85;;;13.00;51.60;;;8.47;82.47;95472.59;5027156;28;20480;-48
2023/03/19 06:18:27;;;;;;;5.28;3.10;;;13.00;51.90;;;8.46;81.58;95475.50;5030974;28;20029;-48
2023/03/19 06:20:53;;;;;;;6.18;2.97;;;13.00;52.10;;;8.35;81.04;95483.34;5028840;28;20712;-49
2023/03/19 06:23:19;;;;;;;5.65;2.97;;;13.00;52.20;;;8.34;80.25;95487.06;5030952;28;20107;-47
2023/03/19 06:25:45;;;;;;;7.03;3.25;;;12.90;52.20;;;8.37;80.07;95477.81;5032490;28;20028;-50
2023/03/19 06:28:11;;;;;;;8.02;3.10;;;12.90;52.30;;;8.35;80.32;95480.69;5024558;28;20035;-49
2023/03/19 06:30:37;;;;;;;6.03;3.17;;;12.90;53.00;;;8.35;82.14;95479.91;5032137;28;20020;-50
2023/03/19 06:33:03;;;;;;;4.90;2.88;;;12.90;52.50;;;8.33;82.30;95477.47;5027054;28;20029;-50
2023/03/19 06:35:30;;;;;;;5.22;2.88;;;12.90;52.60;;;8.30;81.69;95475.38;5021746;28;20028;-50
2023/03/19 06:37:55;;;;;;;7.07;2.90;;;13.00;52.60;;;8.28;81.68;95474.81;5025863;28;20116;-52
2023/03/19 06:40:21;;;;;;;6.43;3.30;;;13.00;52.60;;;8.41;82.60;95481.56;5012391;28;20108;-48
2023/03/19 06:42:48;;;;;;;7.38;2.78;;;13.00;52.80;;;8.47;81.95;95483.22;5039428;28;20040;-49
2023/03/19 06:45:17;;;;;;;5.82;2.90;;;13.10;52.90;;;8.50;82.29;95482.72;5018371;28;20135;-50
2023/03/19 06:47:45;;;;;;;6.13;3.30;;;13.10;53.00;;;8.52;83.37;95479.78;5019444;28;20399;-54
2023/03/19 06:50:15;;;;;;;7.43;2.72;;;13.20;53.10;;;8.55;83.33;95484.59;5019171;28;20021;-50
2023/03/19 06:52:41;;;;;;;5.60;3.15;;;13.20;53.20;;;8.60;83.00;95481.19;5021002;28;20548;-51
2023/03/19 06:55:09;;;;;;;5.13;2.83;;;13.20;53.20;;;8.57;79.81;95482.50;5015724;28;20100;-54
2023/03/19 06:57:35;;;;;;;4.35;2.88;;;13.30;53.20;;;8.66;80.23;95483.63;5011563;28;20494;-50
2023/03/19 07:00:01;;;;;;;6.15;3.13;;;13.30;53.10;;;8.74;78.99;95482.34;5013110;28;20029;-47
2023/03/19 07:02:27;;;;;;;7.25;3.10;;;13.40;53.20;;;8.83;79.33;95482.69;5012413;28;20429;-48
2023/03/19 07:04:53;;;;;;;5.82;2.80;;;13.50;53.10;;;8.90;77.09;95486.72;5030159;28;20024;-52
2023/03/19 07:07:19;;;;;;;7.00;2.95;;;13.60;53.00;;;9.02;77.31;95490.00;5016282;28;20090;-52
2023/03/19 07:09:45;;;;;;;4.95;2.95;;;13.70;53.00;;;9.13;77.73;95487.41;5022169;28;20379;-47
2023/03/19 07:12:11;;;;;;;4.78;2.80;;;13.90;52.90;;;9.18;77.78;95485.56;5031722;28;20035;-47
2023/03/19 07:14:37;;;;;;;3.78;2.45;;;14.00;52.90;;;9.30;80.19;95484.53;5016392;28;20025;-54
2023/03/19 07:17:03;;;;;;;6.30;3.50;;;14.10;52.70;;;9.36;77.86;95486.16;5020270;28;20056;-48
2023/03/19 07:19:29;;;;;;;4.60;2.53;;;14.30;52.70;;;9.49;77.22;95489.19;5014965;28;20025;-50
2023/03/19 07:21:55;;;;;;;6.75;2.85;;;14.40;52.40;;;9.60;76.52;95487.34;5012976;28;20025;-50
2023/03/19 07:24:20;;;;;;;8.82;2.95;;;14.50;52.40;;;9.72;76.28;95487.13;5015329;28;20146;-47
2023/03/19 07:26:47;;;;;;;5.50;2.53;;;14.60;52.30;;;9.83;76.78;95490.59;5013496;28;20029;-48
2023/03/19 07:29:13;;;;;;;4.03;2.50;;;14.70;52.30;;;9.91;73.17;95482.94;5018253;28;20020;-48
2023/03/19 07:31:39;;;;;;;3.83;2.63;;;14.80;52.00;;;10.04;74.60;95478.97;5013656;28;20488;-47
2023/03/19 07:34:05;;;;;;;5.97;2.85;;;15.00;52.00;;;10.17;74.96;95481.09;5022548;28;20051;-51
2023/03/19 07:36:31;;;;;;;3.80;2.63;;;15.10;51.90;;;10.37;77.26;95487.53;5013343;28;20438;-48
2023/03/19 07:38:57;;;;;;;5.57;2.92;;;15.30;52.00;;;10.50;73.08;95486.22;5012876;28;20025;-49
2023/03/19 07:41:23;;;;;;;6.47;3.08;;;15.50;51.70;;;10.73;74.84;95490.22;5013368;28;20029;-52
2023/03/19 07:43:49;;;;;;;5.90;3.22;;;15.80;51.50;;;10.91;74.11;95491.56;5014497;28;20078;-47
2023/03/19 07:46:16;;;;;;;6.50;2.90;;;16.00;51.40;;;11.01;69.58;95486.22;5015761;28;20029;-47
2023/03/19 07:48:41;;;;;;;3.60;2.38;;;16.20;51.00;;;11.19;67.13;95480.31;5025519;28;20519;-49
2023/03/19 07:51:07;;;;;;;6.25;3.10;;;16.40;50.60;;;11.39;67.10;95494.66;5022462;28;20086;-50
2023/03/19 07:53:33;;;;;;;5.68;2.75;;;16.70;50.10;;;11.62;62.54;95491.34;5013815;28;20051;-48
2023/03/19 07:55:59;;;;;;;7.63;2.63;;;16.90;49.50;;;11.86;62.75;95493.44;5012785;28;20059;-47
2023/03/19 07:58:25;;;;;;;4.38;2.60;;;17.20;48.90;;;12.08;61.49;95493.84;5016903;28;20036;-50
2023/03/19 08:00:53;;;;;;;4.53;2.40;;;17.50;48.40;;;12.27;62.29;95491.31;5019919;28;20048;-48
2023/03/19 08:03:19;;;;;;;4.68;2.60;;;17.70;48.10;;;12.40;59.30;95489.91;5014596;28;20048;-48
2023/03/19 08:05:48;;;;;;;3.90;2.20;;;17.80;47.70;;;12.56;59.17;95490.59;5019157;28;20068;-47
2023/03/19 08:08:16;;;;;;;3.78;2.45;;;17.90;47.30;;;12.65;58.88;95491.59;5027529;28;20082;-49
2023/03/19 08:10:41;;;;;;;4.57;2.38;;;18.00;46.90;;;12.74;58.08;95490.72;5027131;28;20047;-50
2023/03/19 08:13:07;;;;;;;3.85;2.40;;;18.20;46.60;;;12.90;58.57;95495.94;5028256;28;20029;-49
2023/03/19 08:15:33;;;;;;;7.45;2.97;;;18.30;46.30;;;12.79;59.46;95497.91;5020068;28;20016;-49
2023/03/19 08:18:03;;;;;;;5.50;2.95;;;18.40;46.10;;;12.80;59.29;95496.81;5016646;28;20021;-49
2023/03/19 08:20:30;;;;;;;6.05;3.30;;;18.50;45.80;;;12.88;59.90;95495.41;5013026;28;20065;-52
2023/03/19 08:22:56;;;;;;;4.35;2.97;;;18.60;45.60;;;12.87;58.98;95499.97;5013703;28;20082;-52
2023/03/19 08:25:24;;;;;;;6.95;3.15;;;18.70;45.30;;;13.06;58.32;95489.34;5013257;28;20055;-49
2023/03/19 08:27:50;;;;;;;6.05;3.42;;;18.70;44.90;;;13.23;58.82;95498.84;5014205;28;20064;-49
2023/03/19 08:30:17;;;;;;;9.55;3.75;;;18.90;45.00;;;13.35;57.17;95505.44;5012917;28;20060;-52
2023/03/19 08:32:45;;;;;;;5.47;3.00;;;19.00;44.70;;;13.27;55.68;95500.69;5021407;28;20041;-48
2023/03/19 08:35:12;;;;;;;4.57;3.00;;;19.10;44.40;;;13.53;54.81;95506.56;5013138;28;20025;-52
2023/03/19 08:37:38;;;;;;;6.65;3.25;;;19.20;43.70;;;13.81;52.28;95507.56;5018937;28;20017;-50
2023/03/19 08:40:05;;;;;;;6.60;3.33;;;19.60;43.30;;;14.23;52.21;95508.66;5014081;28;20037;-48
2023/03/19 08:42:30;;;;;;;6.72;3.50;;;20.00;42.70;;;14.84;50.03;95511.53;5019614;28;20025;-51
2023/03/19 08:44:56;;;;;;;4.72;3.38;;;20.70;42.30;;;15.40;47.38;95503.31;5019017;28;20032;-48
2023/03/19 08:47:23;;;;;;;4.20;3.05;;;21.40;41.40;;;15.95;45.58;95497.16;5020266;28;20041;-48
2023/03/19 08:49:51;;;;;;;4.20;3.05;;;22.00;40.40;;;16.51;46.89;95497.84;5017406;28;20044;-53
2023/03/19 08:52:18;;;;;;;5.45;3.30;;;22.60;39.70;;;16.98;44.75;95498.38;5016253;28;20045;-49
2023/03/19 08:54:44;;;;;;;3.25;2.40;;;23.20;38.90;;;17.44;42.70;95497.22;5018256;28;20115;-48
2023/03/19 08:57:10;;;;;;;3.25;2.30;;;23.60;38.00;;;17.73;42.05;95500.16;5032723;28;20152;-53
2023/03/19 08:59:36;;;;;;;3.55;2.20;;;24.00;37.50;;;17.70;41.55;95500.78;5030753;28;20027;-48
2023/03/19 09:02:02;;;;;;;5.65;2.40;;;24.10;36.80;;;17.36;41.46;95504.16;5036755;28;20024;-51
2023/03/19 09:04:29;;;;;;;4.93;2.85;;;24.10;36.20;;;17.50;41.38;95501.34;5027263;28;20383;-52
2023/03/19 09:06:54;;;;;;;3.40;2.45;;;24.30;35.50;;;17.82;41.26;95499.44;5030142;28;20060;-48
2023/03/19 09:09:23;;;;;;;4.03;2.53;;;24.70;34.90;;;18.20;41.29;95497.00;5023784;28;20483;-48
2023/03/19 09:11:49;;;;;;;5.07;2.60;;;25.00;34.40;;;18.25;39.88;95499.56;5027750;28;20020;-50
2023/03/19 09:14:18;;;;;;;5.93;2.97;;;25.30;33.80;;;18.33;40.52;95504.13;5029491;28;20056;-48
2023/03/19 09:16:44;;;;;;;3.88;2.75;;;25.70;33.40;;;18.67;39.62;95500.66;5022258;28;20037;-48
2023/03/19 09:19:10;;;;;;;3.63;3.00;;;26.10;32.90;;;19.05;38.69;95505.44;5031000;28;20429;-50
2023/03/19 09:21:37;;;;;;;3.42;2.80;;;26.50;32.60;;;19.37;38.13;95504.09;5030750;28;20019;-49
2023/03/19 09:24:04;;;;;;;3.35;2.78;;;26.90;32.00;;;19.27;37.75;95504.44;5029330;28;20471;-50
2023/03/19 09:26:30;;;;;;;5.72;2.47;;;27.10;31.40;;;18.92;37.33;95509.09;5029076;28;20070;-55
2023/03/19 09:28:56;;;;;;;4.00;2.40;;;27.00;30.80;;;18.77;38.10;95518.50;5024285;28;20123;-49
2023/03/19 09:31:22;;;;;;;4.53;2.63;;;26.90;30.40;;;18.97;38.01;95508.94;5029906;28;20025;-48
2023/03/19 09:33:49;;;;;;;4.20;2.60;;;26.90;30.20;;;19.25;38.20;95505.88;5024451;28;20392;-50
2023/03/19 09:36:15;;;;;;;4.20;2.60;;;27.10;30.00;;;19.40;37.31;95505.38;5028173;28;20028;-48
2023/03/19 09:38:41;;;;;;;3.65;2.55;;;27.30;29.70;;;19.44;37.55;95503.59;5030013;28;20021;-51
2023/03/19 09:41:22;;;;;;;3.63;2.88;;;27.60;29.40;;;19.78;36.41;95500.00;5030040;28;20033;-48
2023/03/19 09:44:14;;;;;;;4.15;2.58;;;27.80;29.10;;;19.88;36.27;95493.44;5027141;28;20571;-48
2023/03/19 09:46:53;;;;;;;3.45;2.67;;;27.90;29.00;;;20.20;35.95;95489.28;5029654;28;20033;-50
2023/03/19 09:49:36;;;;;;;5.68;2.90;;;28.10;29.00;;;20.27;36.09;95486.84;5031521;28;20476;-49
2023/03/19 09:52:55;;;;;;;4.57;2.40;;;28.20;28.70;;;19.94;36.41;95481.34;5022758;28;20082;-54
2023/03/19 09:55:44;;;;;;;4.20;2.70;;;27.90;28.50;;;19.62;36.96;95486.22;5028351;28;20673;-48
2023/03/19 09:58:19;;;;;;;5.28;2.35;;;27.60;28.60;;;19.65;36.46;95492.94;5028742;28;20085;-49
2023/03/19 10:00:54;;;;;;;3.47;2.25;;;27.40;28.60;;;19.77;36.07;95484.09;5011629;28;20120;-51
2023/03/19 10:04:11;;;;;;;5.18;3.08;;;27.20;28.60;;;19.64;36.86;95480.50;5022398;28;20471;-48
2023/03/19 10:06:39;;;;;;;3.30;2.70;;;27.10;28.70;;;19.43;36.70;95480.44;5017333;28;20029;-55
2023/03/19 10:09:42;;;;;;;4.90;3.00;;;27.20;28.80;;;19.93;36.48;95473.53;5041208;28;20375;-50
2023/03/19 10:13:19;;;;;;;5.53;2.97;;;27.60;28.60;;;20.43;36.37;95473.53;5023089;28;20078;-51
2023/03/19 10:15:49;;;;;;;4.55;2.38;;;28.10;28.70;;;19.99;36.35;95467.59;5013893;28;20540;-53
2023/03/19 10:18:27;;;;;;;4.82;3.58;;;28.00;28.40;;;20.15;35.92;95462.44;5029559;28;20134;-49
2023/03/19 10:21:30;;;;;;;3.50;3.20;;;27.90;28.30;;;20.20;35.79;95466.84;5025220;28;20016;-51
2023/03/19 10:24:30;;;;;;;4.80;2.95;;;27.90;28.20;;;20.07;35.95;95457.88;5027247;28;20020;-51
2023/03/19 10:27:16;;;;;;;3.75;2.72;;;27.80;28.00;;;20.32;35.07;95464.22;5023781;28;20047;-55
2023/03/19 10:29:42;;;;;;;4.43;3.30;;;27.80;28.00;;;20.39;35.87;95461.00;5027778;28;20040;-50